createdAt,value
2023-04-02T00:00:01.156Z,0.80
2023-04-02T00:02:31.472Z,1.15
2023-04-02T00:05:18.533Z,1.10
2023-04-02T00:07:50.840Z,1.02
2023-04-02T00:10:46.638Z,1.20
2023-04-02T00:13:13.704Z,1.30
2023-04-02T00:15:43.076Z,1.10
2023-04-02T00:18:16.458Z,1.00
2023-04-02T00:20:47.383Z,1.10
2023-04-02T00:23:16.087Z,0.90
2023-04-02T00:25:45.610Z,1.38
2023-04-02T00:28:21.066Z,1.00
2023-04-02T00:31:00.297Z,0.95
2023-04-02T00:33:30.414Z,1.13
2023-04-02T00:35:57.731Z,0.90
2023-04-02T00:38:31.658Z,1.02
2023-04-02T00:41:07.438Z,0.82
2023-04-02T00:43:39.779Z,1.00
2023-04-02T00:46:15.187Z,1.10
2023-04-02T00:48:50.331Z,0.90
2023-04-02T00:51:29.990Z,0.70
2023-04-02T00:54:00.454Z,0.70
2023-04-02T00:56:40.369Z,0.80
2023-04-02T00:59:31.222Z,0.80
2023-04-02T01:02:41.519Z,1.13
2023-04-02T01:05:34.020Z,0.80
2023-04-02T01:08:14.294Z,0.80
2023-04-02T01:10:42.671Z,0.60
2023-04-02T01:13:23.815Z,0.80
2023-04-02T01:16:15.655Z,0.80
2023-04-02T01:18:58.224Z,0.80
2023-04-02T01:21:42.188Z,0.70
2023-04-02T01:24:14.034Z,0.82
2023-04-02T01:26:47.143Z,0.80
2023-04-02T01:29:19.486Z,0.82
2023-04-02T01:31:49.097Z,0.77
2023-04-02T01:34:18.946Z,1.02
2023-04-02T01:36:56.404Z,1.00
2023-04-02T01:39:45.364Z,1.10
2023-04-02T01:43:10.651Z,1.00
2023-04-02T01:45:38.319Z,0.93
2023-04-02T01:48:13.802Z,1.10
2023-04-02T01:50:42.633Z,1.00
2023-04-02T01:53:13.365Z,1.35
2023-04-02T01:55:48.767Z,1.20
2023-04-02T01:58:25.350Z,1.23
2023-04-02T02:00:56.171Z,1.20
2023-04-02T02:03:24.414Z,1.00
2023-04-02T02:05:51.805Z,1.17
2023-04-02T02:08:27.212Z,1.10
2023-04-02T02:10:54.178Z,1.02
2023-04-02T02:13:23.071Z,1.20
2023-04-02T02:15:50.500Z,1.23
2023-04-02T02:18:23.454Z,1.10
2023-04-02T02:20:54.396Z,1.10
2023-04-02T02:23:21.837Z,1.10
2023-04-02T02:25:48.774Z,1.10
2023-04-02T02:28:22.448Z,1.08
2023-04-02T02:30:53.002Z,1.10
2023-04-02T02:33:30.673Z,1.40
2023-04-02T02:36:33.675Z,1.48
2023-04-02T02:39:34.217Z,1.20
2023-04-02T02:42:24.355Z,1.00
2023-04-02T02:44:55.150Z,0.98
2023-04-02T02:47:30.928Z,1.20
2023-04-02T02:50:04.814Z,1.10
2023-04-02T02:52:35.640Z,1.00
2023-04-02T02:55:21.892Z,1.08
2023-04-02T02:58:19.345Z,1.08
2023-04-02T03:00:58.967Z,1.20
2023-04-02T03:03:32.693Z,1.10
2023-04-02T03:06:10.607Z,1.13
2023-04-02T03:08:46.535Z,1.30
2023-04-02T03:11:28.376Z,1.77
2023-04-02T03:14:03.557Z,1.30
2023-04-02T03:16:48.020Z,1.30
2023-04-02T03:19:21.158Z,1.50
2023-04-02T03:21:54.053Z,1.50
2023-04-02T03:24:43.391Z,1.30
2023-04-02T03:27:15.535Z,1.50
2023-04-02T03:29:51.898Z,1.00
2023-04-02T03:32:26.952Z,1.23
2023-04-02T03:35:02.979Z,1.40
2023-04-02T03:38:07.452Z,1.20
2023-04-02T03:40:41.246Z,1.80
2023-04-02T03:43:22.778Z,1.10
2023-04-02T03:46:13.895Z,1.20
2023-04-02T03:48:49.588Z,1.33
2023-04-02T03:51:39.566Z,1.33
2023-04-02T03:54:14.087Z,1.20
2023-04-02T03:56:41.538Z,0.90
2023-04-02T03:59:54.413Z,1.08
2023-04-02T04:02:46.189Z,1.30
2023-04-02T04:05:28.917Z,1.00
2023-04-02T04:08:16.306Z,0.90
2023-04-02T04:10:44.168Z,0.93
2023-04-02T04:13:17.591Z,0.98
2023-04-02T04:15:51.587Z,1.00
2023-04-02T04:18:42.765Z,0.70
2023-04-02T04:21:40.001Z,1.00
2023-04-02T04:24:23.317Z,1.00
2023-04-02T04:26:58.385Z,0.70
2023-04-02T04:30:03.916Z,0.80
2023-04-02T04:32:39.057Z,0.82
2023-04-02T04:35:23.767Z,0.95
2023-04-02T04:38:04.789Z,0.90
2023-04-02T04:40:41.898Z,0.80
2023-04-02T04:43:16.735Z,1.35
2023-04-02T04:45:56.352Z,1.00
2023-04-02T04:48:37.780Z,1.00
2023-04-02T04:51:10.845Z,1.10
2023-04-02T04:53:48.564Z,0.80
2023-04-02T04:56:27.122Z,0.80
2023-04-02T04:59:25.770Z,0.90
2023-04-02T05:02:07.670Z,1.00
2023-04-02T05:04:41.081Z,0.80
2023-04-02T05:07:24.520Z,0.95
2023-04-02T05:09:52.362Z,1.42
2023-04-02T05:13:02.834Z,1.02
2023-04-02T05:15:42.171Z,0.90
2023-04-02T05:18:31.340Z,0.77
2023-04-02T05:21:34.273Z,0.80
2023-04-02T05:24:39.706Z,0.70
2023-04-02T05:27:26.746Z,0.80
2023-04-02T05:30:05.044Z,6.35
2023-04-02T05:32:42.963Z,1.30
2023-04-02T05:35:17.369Z,0.93
2023-04-02T05:37:46.233Z,0.90
2023-04-02T05:40:40.863Z,0.90
2023-04-02T05:43:17.238Z,0.90
2023-04-02T05:45:46.780Z,0.88
2023-04-02T05:48:28.174Z,0.70
2023-04-02T05:50:58.960Z,0.90
2023-04-02T05:53:41.429Z,1.23
2023-04-02T05:56:20.431Z,0.90
2023-04-02T05:59:11.925Z,1.10
2023-04-02T06:01:49.455Z,0.90
2023-04-02T06:04:34.272Z,1.67
2023-04-02T06:07:13.690Z,2.00
2023-04-02T06:10:49.137Z,1.10
2023-04-02T06:13:19.868Z,1.60
2023-04-02T06:15:47.916Z,1.30
2023-04-02T06:18:33.943Z,0.80
2023-04-02T06:21:01.172Z,1.10
2023-04-02T06:23:39.472Z,1.17
2023-04-02T06:26:26.429Z,0.95
2023-04-02T06:29:24.397Z,1.10
2023-04-02T06:32:04.254Z,0.75
2023-04-02T06:34:32.060Z,1.00
2023-04-02T06:39:35.645Z,0.82
2023-04-02T06:42:20.577Z,1.00
2023-04-02T06:44:59.471Z,1.10
2023-04-02T06:47:48.817Z,0.90
2023-04-02T06:50:32.012Z,1.10
2023-04-02T06:53:06.438Z,0.98
2023-04-02T06:55:35.441Z,0.80
2023-04-02T06:58:02.696Z,1.00
2023-04-02T07:00:46.127Z,0.93
2023-04-02T07:03:26.227Z,1.20
2023-04-02T07:05:55.216Z,1.00
2023-04-02T07:08:22.668Z,0.70
2023-04-02T07:10:49.852Z,0.90
2023-04-02T07:13:23.169Z,1.10
2023-04-02T07:15:53.236Z,1.48
2023-04-02T07:18:31.789Z,0.80
2023-04-02T07:21:01.371Z,0.70
2023-04-02T07:23:28.534Z,0.70
2023-04-02T07:25:57.467Z,0.60
2023-04-02T07:28:25.237Z,2.50
2023-04-02T07:30:52.941Z,0.98
2023-04-02T07:33:22.988Z,0.73
2023-04-02T07:35:51.288Z,2.78
2023-04-02T07:38:18.554Z,1.08
2023-04-02T07:40:45.930Z,0.60
2023-04-02T07:43:14.819Z,0.80
2023-04-02T07:45:41.940Z,1.10
2023-04-02T07:48:13.318Z,1.13
2023-04-02T07:50:40.726Z,1.20
2023-04-02T07:53:08.844Z,1.20
2023-04-02T07:55:36.512Z,1.55
2023-04-02T07:58:05.718Z,1.20
2023-04-02T08:00:33.037Z,2.05
2023-04-02T08:03:00.005Z,1.10
2023-04-02T08:05:27.935Z,0.88
2023-04-02T08:07:57.038Z,0.90
2023-04-02T08:10:24.845Z,1.60
2023-04-02T08:12:51.978Z,1.27
2023-04-02T08:15:18.933Z,1.10
2023-04-02T08:17:46.388Z,0.90
2023-04-02T08:20:22.390Z,0.70
2023-04-02T08:22:50.672Z,0.90
2023-04-02T08:25:17.878Z,0.60
2023-04-02T08:27:49.747Z,1.35
2023-04-02T08:30:17.937Z,1.30
2023-04-02T08:32:45.127Z,1.58
2023-04-02T08:35:14.765Z,0.90
2023-04-02T08:37:42.076Z,0.60
2023-04-02T08:40:25.048Z,0.60
2023-04-02T08:43:22.434Z,1.00
2023-04-02T08:46:18.678Z,1.10
2023-04-02T08:48:50.937Z,0.52
2023-04-02T08:51:30.808Z,1.10
2023-04-02T08:54:27.370Z,0.73
2023-04-02T08:57:16.229Z,4.72
2023-04-02T08:59:45.262Z,0.90
2023-04-02T09:02:35.796Z,1.05
2023-04-02T09:05:06.951Z,1.77
2023-04-02T09:07:34.746Z,0.90
2023-04-02T09:10:05.432Z,0.60
2023-04-02T09:12:32.753Z,1.00
2023-04-02T09:15:26.162Z,1.00
2023-04-02T09:18:16.475Z,0.82
2023-04-02T09:20:44.196Z,1.02
2023-04-02T09:23:20.934Z,1.50
2023-04-02T09:26:03.372Z,0.77
2023-04-02T09:31:03.076Z,0.57
2023-04-02T09:33:49.024Z,0.50
2023-04-02T09:36:37.358Z,0.85
2023-04-02T09:39:19.698Z,1.10
2023-04-02T09:41:55.744Z,0.60
2023-04-02T09:47:04.633Z,0.50
2023-04-02T09:49:35.647Z,0.40
2023-04-02T09:52:20.132Z,0.95
2023-04-02T09:55:06.002Z,0.40
2023-04-02T09:57:33.720Z,0.70
2023-04-02T10:00:30.699Z,0.32
2023-04-02T10:03:21.782Z,0.38
2023-04-02T10:05:49.166Z,0.40
2023-04-02T10:08:28.236Z,0.50
2023-04-02T10:11:00.780Z,0.50
2023-04-02T10:14:09.873Z,0.43
2023-04-02T10:16:52.394Z,0.30
2023-04-02T10:19:26.456Z,0.93
2023-04-02T10:21:55.212Z,0.40
2023-04-02T10:24:22.141Z,0.55
2023-04-02T10:27:09.770Z,0.40
2023-04-02T10:29:58.235Z,0.50
2023-04-02T10:32:43.255Z,2.30
2023-04-02T10:35:15.920Z,0.63
2023-04-02T10:37:54.413Z,0.20
2023-04-02T10:40:29.568Z,0.40
2023-04-02T10:43:10.197Z,1.70
2023-04-02T10:46:02.109Z,1.88
2023-04-02T10:48:44.827Z,0.40
2023-04-02T10:51:32.004Z,0.52
2023-04-02T10:54:40.436Z,0.30
2023-04-02T10:57:32.524Z,0.40
2023-04-02T11:00:15.853Z,1.43
2023-04-02T11:02:56.267Z,1.00
2023-04-02T11:05:32.724Z,0.75
2023-04-02T11:08:22.705Z,0.60
2023-04-02T11:11:03.968Z,0.90
2023-04-02T11:13:33.412Z,0.80
2023-04-02T11:16:00.607Z,0.50
2023-04-02T11:18:36.052Z,0.35
2023-04-02T11:21:07.834Z,0.40
2023-04-02T11:23:38.867Z,0.63
2023-04-02T11:26:41.489Z,0.50
2023-04-02T11:29:15.831Z,0.50
2023-04-02T11:31:44.622Z,0.50
2023-04-02T11:34:35.966Z,0.60
2023-04-02T11:37:08.729Z,0.55
2023-04-02T11:39:56.800Z,0.80
2023-04-02T11:42:36.809Z,0.70
2023-04-02T11:45:23.038Z,0.60
2023-04-02T11:48:02.509Z,0.70
2023-04-02T11:50:41.773Z,0.47
2023-04-02T11:53:12.122Z,0.52
2023-04-02T11:56:01.842Z,0.50
2023-04-02T11:58:47.350Z,0.40
2023-04-02T12:01:34.420Z,0.30
2023-04-02T12:04:01.348Z,0.38
2023-04-02T12:06:48.264Z,0.93
2023-04-02T12:09:26.736Z,0.38
2023-04-02T12:11:56.616Z,0.30
2023-04-02T12:14:41.739Z,0.40
2023-04-02T12:17:33.027Z,0.57
2023-04-02T12:20:11.393Z,0.40
2023-04-02T12:22:55.261Z,0.38
2023-04-02T12:25:40.342Z,0.20
2023-04-02T12:28:10.466Z,0.28
2023-04-02T12:30:38.428Z,2.22
2023-04-02T12:33:30.463Z,1.10
2023-04-02T12:35:59.907Z,2.53
2023-04-02T12:38:28.681Z,0.30
2023-04-02T12:40:58.944Z,0.30
2023-04-02T12:43:31.462Z,0.60
2023-04-02T12:46:04.599Z,1.50
2023-04-02T12:48:33.332Z,4.38
2023-04-02T12:51:01.513Z,3.58
2023-04-02T12:53:38.896Z,0.63
2023-04-02T12:56:08.289Z,0.10
2023-04-02T12:58:38.332Z,0.20
2023-04-02T13:01:11.477Z,0.90
2023-04-02T13:03:38.453Z,0.20
2023-04-02T13:06:23.380Z,0.40
2023-04-02T13:08:51.195Z,0.10
2023-04-02T13:11:18.543Z,1.00
2023-04-02T13:13:48.462Z,0.32
2023-04-02T13:16:15.482Z,0.28
2023-04-02T13:18:44.559Z,0.30
2023-04-02T13:21:20.380Z,0.28
2023-04-02T13:23:47.693Z,0.22
2023-04-02T13:26:28.714Z,0.30
2023-04-02T13:29:01.183Z,0.20
2023-04-02T13:31:30.216Z,0.43
2023-04-02T13:33:57.999Z,0.20
2023-04-02T13:36:26.114Z,0.20
2023-04-02T13:38:53.022Z,0.30
2023-04-02T13:41:28.514Z,1.05
2023-04-02T13:43:58.089Z,0.50
2023-04-02T13:46:27.890Z,0.30
2023-04-02T13:48:56.038Z,0.22
2023-04-02T13:51:37.719Z,0.45
2023-04-02T13:54:13.958Z,1.10
2023-04-02T13:56:41.252Z,0.60
2023-04-02T13:59:08.178Z,0.50
2023-04-02T14:01:35.626Z,0.45
2023-04-02T14:04:03.114Z,0.70
2023-04-02T14:07:02.277Z,0.60
2023-04-02T14:09:58.282Z,0.60
2023-04-02T14:12:39.434Z,0.45
2023-04-02T14:15:25.060Z,0.57
2023-04-02T14:18:29.050Z,0.55
2023-04-02T14:21:36.862Z,1.35
2023-04-02T14:24:31.905Z,0.85
2023-04-02T14:27:26.601Z,0.70
2023-04-02T14:30:00.853Z,0.73
2023-04-02T14:33:01.100Z,0.70
2023-04-02T14:35:52.633Z,0.95
2023-04-02T14:39:02.760Z,1.17
2023-04-02T14:42:01.022Z,0.80
2023-04-02T14:44:48.504Z,0.57
2023-04-02T14:47:26.302Z,0.60
2023-04-02T14:50:08.409Z,0.52
2023-04-02T14:52:44.423Z,0.82
2023-04-02T14:55:49.073Z,0.70
2023-04-02T14:58:36.309Z,0.90
2023-04-02T15:01:14.608Z,0.70
2023-04-02T15:10:48.961Z,0.30
2023-04-02T15:13:33.349Z,0.30
2023-04-02T15:16:29.668Z,0.35
2023-04-02T15:19:01.805Z,1.10
2023-04-02T15:21:59.029Z,1.08
2023-04-02T15:24:57.517Z,0.88
2023-04-02T15:27:39.902Z,1.65
2023-04-02T15:30:54.841Z,1.27
2023-04-02T15:33:51.833Z,1.25
2023-04-02T15:36:46.267Z,0.35
2023-04-02T15:39:50.868Z,0.50
2023-04-02T15:42:53.215Z,0.77
2023-04-02T15:45:38.248Z,0.40
2023-04-02T15:48:54.561Z,0.68
2023-04-02T15:51:37.432Z,6.95
2023-04-02T15:54:54.851Z,1.17
2023-04-02T15:58:12.314Z,0.50
2023-04-02T16:01:20.415Z,0.60
2023-04-02T16:04:26.820Z,0.52
2023-04-02T16:07:37.976Z,1.00
2023-04-02T16:10:40.913Z,0.40
2023-04-02T16:13:34.281Z,0.57
2023-04-02T16:16:13.141Z,0.50
2023-04-02T16:19:02.513Z,0.40
2023-04-02T16:21:47.137Z,0.60
2023-04-02T16:24:14.219Z,0.50
2023-04-02T16:27:08.923Z,0.80
2023-04-02T16:30:07.896Z,0.80
2023-04-02T16:32:53.071Z,4.20
2023-04-02T16:37:56.924Z,1.48
2023-04-02T16:41:04.791Z,2.10
2023-04-02T16:44:00.260Z,3.33
2023-04-02T16:46:40.363Z,1.55
2023-04-02T16:49:39.045Z,1.10
2023-04-02T16:52:27.586Z,0.93
2023-04-02T16:55:12.553Z,1.13
2023-04-02T16:58:03.205Z,1.50
2023-04-02T17:01:08.554Z,1.00
2023-04-02T17:04:02.198Z,1.33
2023-04-02T17:06:53.149Z,1.10
2023-04-02T17:09:32.465Z,1.67
2023-04-02T17:12:19.627Z,1.10
2023-04-02T17:14:55.941Z,0.93
2023-04-02T17:17:25.910Z,4.15
2023-04-02T17:20:01.106Z,2.45
2023-04-02T17:22:31.467Z,2.83
2023-04-02T17:25:01.881Z,2.70
2023-04-02T17:27:41.148Z,2.08
2023-04-02T17:30:23.694Z,1.88
2023-04-02T17:32:50.767Z,1.70
2023-04-02T17:35:27.286Z,1.60
2023-04-02T17:38:06.840Z,2.00
2023-04-02T17:41:02.270Z,1.13
2023-04-02T17:43:46.423Z,1.20
2023-04-02T17:46:38.737Z,2.60
2023-04-02T17:49:28.207Z,2.78
2023-04-02T17:51:59.675Z,4.07
2023-04-02T17:55:02.611Z,3.05
2023-04-02T17:57:35.602Z,2.55
2023-04-02T18:00:08.712Z,5.13
2023-04-02T18:02:48.906Z,14.52
2023-04-02T18:05:32.029Z,7.78
2023-04-02T18:10:35.188Z,5.78
2023-04-02T18:13:22.070Z,6.43
2023-04-02T18:15:56.765Z,5.13
2023-04-02T18:18:35.286Z,4.47
2023-04-02T18:21:57.811Z,1.83
2023-04-02T18:24:31.074Z,1.10
2023-04-02T18:27:13.409Z,1.25
2023-04-02T18:30:13.545Z,3.75
2023-04-02T18:32:54.320Z,4.45
2023-04-02T18:35:32.157Z,6.15
2023-04-02T18:38:19.619Z,3.65
2023-04-02T18:41:18.278Z,4.55
2023-04-02T18:44:03.704Z,3.78
2023-04-02T18:47:21.196Z,4.10
2023-04-02T18:49:59.474Z,4.95
2023-04-02T18:52:27.489Z,4.13
2023-04-02T18:55:06.905Z,4.47
2023-04-02T18:57:38.996Z,3.50
2023-04-02T19:00:19.975Z,3.97
2023-04-02T19:03:21.229Z,3.30
2023-04-02T19:05:56.745Z,3.58
2023-04-02T19:08:48.319Z,3.47
2023-04-02T19:11:28.627Z,3.65
2023-04-02T19:13:59.518Z,3.63
2023-04-02T19:16:52.981Z,3.80
2023-04-02T19:19:27.768Z,3.80
2023-04-02T19:22:18.327Z,4.35
2023-04-02T19:25:36.073Z,4.25
2023-04-02T19:28:27.797Z,4.82
2023-04-02T19:31:03.471Z,4.68
2023-04-02T19:34:12.163Z,4.90
2023-04-02T19:36:55.418Z,4.68
2023-04-02T19:39:23.410Z,4.93
2023-04-02T19:42:03.216Z,5.10
2023-04-02T19:44:30.268Z,4.60
2023-04-02T19:46:58.212Z,4.80
2023-04-02T19:49:28.811Z,5.13
2023-04-02T19:51:56.879Z,4.70
2023-04-02T19:54:26.161Z,4.65
2023-04-02T19:56:53.170Z,4.95
2023-04-02T19:59:20.190Z,4.95
2023-04-02T20:01:47.412Z,4.72
2023-04-02T20:04:14.896Z,4.25
2023-04-02T20:06:42.887Z,5.07
2023-04-02T20:09:09.895Z,4.80
2023-04-02T20:11:38.504Z,4.32
2023-04-02T20:14:06.291Z,4.65
2023-04-02T20:16:38.695Z,4.50
2023-04-02T20:19:06.112Z,5.15
2023-04-02T20:21:38.319Z,5.18
2023-04-02T20:24:06.770Z,6.03
2023-04-02T20:26:35.328Z,5.28
2023-04-02T20:29:02.385Z,5.38
2023-04-02T20:31:31.425Z,6.25
2023-04-02T20:34:03.821Z,7.22
2023-04-02T20:36:31.844Z,6.93
2023-04-02T20:38:58.868Z,6.40
2023-04-02T20:41:26.669Z,6.30
2023-04-02T20:43:53.840Z,6.28
2023-04-02T20:46:20.805Z,5.70
2023-04-02T20:48:47.901Z,6.60
2023-04-02T20:51:15.744Z,5.97
2023-04-02T20:53:42.935Z,5.85
2023-04-02T20:56:12.735Z,5.85
2023-04-02T20:59:07.603Z,6.45
2023-04-02T21:01:34.641Z,5.70
2023-04-02T21:04:03.615Z,5.97
2023-04-02T21:06:34.317Z,6.20
2023-04-02T21:09:03.102Z,6.00
2023-04-02T21:11:30.326Z,6.47
2023-04-02T21:13:57.235Z,5.93
2023-04-02T21:16:28.835Z,6.15
2023-04-02T21:18:58.554Z,6.95
2023-04-02T21:21:25.866Z,6.60
2023-04-02T21:23:59.387Z,7.53
2023-04-02T21:26:29.309Z,6.60
2023-04-02T21:28:56.823Z,7.15
2023-04-02T21:31:29.619Z,7.72
2023-04-02T21:33:58.477Z,7.35
2023-04-02T21:36:31.144Z,8.02
2023-04-02T21:39:01.012Z,7.75
2023-04-02T21:41:36.364Z,7.53
2023-04-02T21:44:04.958Z,8.63
2023-04-02T21:46:36.171Z,8.40
2023-04-02T21:49:03.263Z,7.97
2023-04-02T21:51:34.426Z,9.60
2023-04-02T21:54:02.266Z,8.77
2023-04-02T21:56:32.093Z,8.50
2023-04-02T21:59:01.826Z,8.63
2023-04-02T22:01:33.717Z,7.82
2023-04-02T22:04:04.413Z,7.50
2023-04-02T22:06:36.157Z,8.32
2023-04-02T22:09:07.935Z,7.95
2023-04-02T22:11:39.180Z,7.65
2023-04-02T22:14:06.286Z,8.15
2023-04-02T22:16:35.418Z,7.43
2023-04-02T22:19:04.530Z,7.35
2023-04-02T22:21:31.665Z,7.43
2023-04-02T22:24:04.163Z,7.18
2023-04-02T22:26:32.285Z,7.63
2023-04-02T22:29:01.499Z,7.07
2023-04-02T22:31:30.762Z,6.97
2023-04-02T22:33:58.330Z,7.03
2023-04-02T22:36:26.694Z,6.15
2023-04-02T22:38:53.750Z,5.90
2023-04-02T22:41:27.464Z,6.30
2023-04-02T22:43:58.053Z,6.40
2023-04-02T22:46:26.821Z,5.63
2023-04-02T22:48:54.365Z,6.22
2023-04-02T22:51:22.499Z,5.82
2023-04-02T22:53:50.328Z,5.35
2023-04-02T22:56:21.915Z,5.22
2023-04-02T22:58:49.524Z,5.38
2023-04-02T23:01:21.496Z,5.57
2023-04-02T23:03:49.140Z,5.27
2023-04-02T23:06:17.896Z,4.90
2023-04-02T23:08:45.679Z,4.88
2023-04-02T23:11:15.948Z,4.28
2023-04-02T23:13:43.810Z,3.70
2023-04-02T23:16:12.856Z,4.25
2023-04-02T23:18:40.918Z,4.30
2023-04-02T23:21:08.453Z,3.85
2023-04-02T23:23:35.931Z,4.00
2023-04-02T23:26:09.422Z,4.13
2023-04-02T23:28:38.076Z,3.55
2023-04-02T23:31:07.624Z,4.05
2023-04-02T23:33:35.180Z,4.10
2023-04-02T23:36:16.325Z,3.55
2023-04-02T23:38:43.300Z,3.67
2023-04-02T23:41:17.149Z,3.72
2023-04-02T23:43:44.482Z,3.67
2023-04-02T23:46:14.534Z,3.42
2023-04-02T23:48:41.469Z,3.45
2023-04-02T23:51:08.442Z,3.72
2023-04-02T23:53:35.996Z,3.40
2023-04-02T23:56:03.042Z,3.63
2023-04-02T23:58:30.088Z,3.70
